Time;durP1;ratioP1;P1;durP2;ratioP2;P2;SDS_P1;SDS_P2;PMS_P1;PMS_P2;Temp;Humidity;BMP_temperature;BMP_pressure;BME280_temperature;BME280_humidity;BME280_pressure;Samples;Min_cycle;Max_cycle;Signal;HPM_P1;HPM_P2
2023/02/10 00:01:40;;;;;;;110.60;34.20;;;3.00;99.90;;;;;;5022635;28;20190;-84
2023/02/10 00:04:06;;;;;;;111.23;36.57;;;3.00;99.90;;;;;;5022558;28;20173;-84
2023/02/10 00:06:33;;;;;;;105.23;35.83;;;3.10;99.90;;;;;;5023156;28;20417;-84
2023/02/10 00:09:00;;;;;;;109.97;33.03;;;3.10;99.90;;;;;;5004897;28;20424;-85
2023/02/10 00:14:22;;;;;;;109.22;33.97;;;3.10;99.90;;;;;;5005903;28;20199;-84
2023/02/10 00:16:52;;;;;;;106.97;36.47;;;3.20;99.90;;;;;;5021955;28;20197;-83
2023/02/10 00:19:19;;;;;;;116.80;36.95;;;3.20;99.90;;;;;;5022449;28;20252;-85
2023/02/10 00:21:45;;;;;;;112.13;37.47;;;3.10;99.90;;;;;;5022868;28;20182;-84
2023/02/10 00:24:11;;;;;;;110.53;37.37;;;3.20;99.90;;;;;;5021142;28;20178;-84
2023/02/10 00:26:37;;;;;;;108.97;37.00;;;3.20;99.90;;;;;;5022119;28;20197;-84
2023/02/10 00:29:03;;;;;;;107.40;36.17;;;3.20;99.90;;;;;;5004963;28;20169;-84
2023/02/10 00:31:28;;;;;;;106.88;35.85;;;3.10;99.90;;;;;;5022298;28;20194;-84
2023/02/10 00:33:54;;;;;;;119.70;35.53;;;3.20;99.90;;;;;;5022647;28;20177;-84
2023/02/10 00:36:21;;;;;;;113.87;33.07;;;3.30;99.90;;;;;;5021422;28;20166;-84
2023/02/10 00:38:47;;;;;;;111.88;35.53;;;3.30;99.90;;;;;;5020594;28;20920;-84
2023/02/10 00:41:18;;;;;;;113.40;36.23;;;3.30;99.90;;;;;;5005192;28;20189;-84
2023/02/10 00:43:44;;;;;;;110.60;34.33;;;3.30;99.90;;;;;;5020929;28;20186;-85
2023/02/10 00:46:14;;;;;;;109.82;37.22;;;3.30;99.90;;;;;;5021714;28;20182;-84
2023/02/10 00:48:43;;;;;;;113.05;38.42;;;3.30;99.90;;;;;;5022039;28;20191;-85
2023/02/10 00:51:09;;;;;;;116.70;38.83;;;3.30;99.90;;;;;;5020886;28;20174;-84
2023/02/10 00:53:35;;;;;;;110.73;36.77;;;3.30;99.90;;;;;;5019797;28;20158;-85
2023/02/10 00:56:01;;;;;;;112.70;37.23;;;3.30;99.90;;;;;;5020166;28;20166;-84
2023/02/10 00:58:27;;;;;;;113.32;40.25;;;3.30;99.90;;;;;;5020128;28;20409;-85
2023/02/10 01:00:54;;;;;;;110.57;38.57;;;3.30;99.90;;;;;;5019852;28;20683;-85
2023/02/10 01:03:20;;;;;;;115.82;38.47;;;3.30;99.90;;;;;;5020617;28;20920;-84
2023/02/10 01:05:46;;;;;;;109.85;38.95;;;3.30;99.90;;;;;;5020785;28;20174;-84
2023/02/10 01:08:13;;;;;;;117.67;42.00;;;3.40;99.90;;;;;;5020955;28;20201;-85
2023/02/10 01:10:38;;;;;;;129.07;39.70;;;3.40;99.90;;;;;;5018712;28;20248;-84
2023/02/10 01:13:06;;;;;;;113.43;35.40;;;3.50;99.90;;;;;;5020725;28;20621;-84
2023/02/10 01:15:33;;;;;;;115.65;37.85;;;3.50;99.90;;;;;;5002567;28;20212;-84
2023/02/10 01:17:58;;;;;;;112.70;34.03;;;3.60;99.90;;;;;;5019854;28;20174;-85
2023/02/10 01:20:25;;;;;;;113.47;37.53;;;3.60;99.90;;;;;;5019837;28;20169;-84
2023/02/10 01:22:51;;;;;;;118.45;36.78;;;3.60;99.90;;;;;;5020342;28;20162;-84
2023/02/10 01:25:16;;;;;;;110.17;34.17;;;3.50;99.90;;;;;;5020427;28;20625;-85
2023/02/10 01:27:42;;;;;;;119.50;35.17;;;3.60;99.90;;;;;;5020333;28;20193;-84
2023/02/10 01:30:10;;;;;;;120.28;37.72;;;3.50;99.90;;;;;;5003421;28;20194;-84
2023/02/10 01:32:35;;;;;;;108.65;35.20;;;3.50;99.90;;;;;;5020166;28;20606;-84
2023/02/10 01:35:01;;;;;;;120.23;37.87;;;3.60;99.90;;;;;;5002171;28;20193;-84
2023/02/10 01:37:27;;;;;;;116.13;37.93;;;3.50;99.90;;;;;;5020701;28;20645;-84
2023/02/10 01:39:52;;;;;;;116.93;38.70;;;3.60;99.90;;;;;;5020604;28;20744;-84
2023/02/10 01:42:18;;;;;;;113.33;38.23;;;3.60;99.90;;;;;;5019508;28;20197;-84
2023/02/10 01:44:43;;;;;;;114.90;39.07;;;3.60;99.90;;;;;;5020323;28;20649;-84
2023/02/10 01:47:10;;;;;;;115.83;41.13;;;3.60;99.90;;;;;;5021490;28;20227;-84
2023/02/10 01:49:44;;;;;;;111.43;42.40;;;3.60;99.90;;;;;;5021021;28;20245;-84
2023/02/10 01:52:15;;;;;;;112.63;38.25;;;3.50;99.90;;;;;;5020486;28;20192;-84
2023/02/10 01:54:46;;;;;;;122.97;37.80;;;3.50;99.90;;;;;;5003845;28;20530;-84
2023/02/10 01:57:12;;;;;;;119.57;40.58;;;3.60;99.90;;;;;;5021797;28;20625;-84
2023/02/10 01:59:41;;;;;;;118.78;38.78;;;3.70;99.90;;;;;;5019684;28;20245;-84
2023/02/10 02:02:07;;;;;;;127.20;41.35;;;3.70;99.90;;;;;;5020502;28;20185;-84
2023/02/10 02:04:46;;;;;;;121.05;40.45;;;3.60;99.90;;;;;;5020587;28;20181;-84
2023/02/10 02:07:14;;;;;;;118.43;41.00;;;3.70;99.90;;;;;;5002963;28;20236;-84
2023/02/10 02:09:40;;;;;;;122.78;41.08;;;3.60;99.90;;;;;;5003409;28;20173;-84
2023/02/10 02:12:30;;;;;;;129.05;41.55;;;3.70;99.90;;;;;;5002661;28;20182;-85
2023/02/10 02:15:22;;;;;;;129.52;37.97;;;3.70;99.90;;;;;;5003423;28;20158;-84
2023/02/10 02:18:06;;;;;;;118.78;40.47;;;3.80;99.90;;;;;;5020248;28;20581;-84
2023/02/10 02:21:03;;;;;;;118.28;40.53;;;3.70;99.90;;;;;;5020748;28;20172;-84
2023/02/10 02:23:44;;;;;;;110.78;35.78;;;3.60;99.90;;;;;;5020096;28;20154;-85
2023/02/10 02:26:49;;;;;;;117.78;39.03;;;3.50;99.90;;;;;;5016913;28;20244;-85
2023/02/10 02:29:33;;;;;;;110.13;38.78;;;3.60;99.90;;;;;;5018262;28;20158;-85
2023/02/10 02:32:14;;;;;;;130.02;39.72;;;3.60;99.90;;;;;;5018833;28;20189;-85
2023/02/10 02:34:52;;;;;;;120.35;38.80;;;3.60;99.90;;;;;;5017952;28;20300;-84
2023/02/10 02:37:37;;;;;;;118.63;39.10;;;3.60;99.90;;;;;;5017400;28;20529;-85
2023/02/10 02:40:04;;;;;;;118.45;39.80;;;3.60;99.90;;;;;;5018136;28;20158;-84
2023/02/10 02:42:32;;;;;;;114.95;38.22;;;3.60;99.90;;;;;;5018855;28;20202;-85
2023/02/10 02:45:18;;;;;;;120.72;38.38;;;3.60;99.90;;;;;;5001312;28;20645;-84
2023/02/10 02:47:49;;;;;;;124.03;38.22;;;3.60;99.90;;;;;;5018030;28;20190;-85
2023/02/10 02:50:28;;;;;;;110.22;36.45;;;3.60;99.90;;;;;;5019212;28;20162;-84
2023/02/10 02:53:05;;;;;;;123.95;41.00;;;3.70;99.90;;;;;;5018760;28;20162;-84
2023/02/10 02:56:00;;;;;;;125.10;42.25;;;3.60;99.90;;;;;;5019006;28;20158;-85
2023/02/10 02:58:43;;;;;;;119.03;39.53;;;3.70;99.90;;;;;;5022659;28;20150;-84
2023/02/10 03:01:16;;;;;;;120.03;39.70;;;3.60;99.90;;;;;;5021924;28;20241;-85
2023/02/10 03:03:42;;;;;;;116.43;39.42;;;3.60;99.90;;;;;;5004868;28;20232;-84
2023/02/10 03:06:08;;;;;;;120.18;39.90;;;3.70;99.90;;;;;;5022147;28;20174;-85
2023/02/10 03:08:38;;;;;;;112.83;41.43;;;3.60;99.90;;;;;;5022021;28;20277;-85
2023/02/10 03:11:03;;;;;;;117.15;38.67;;;3.60;99.90;;;;;;5022507;28;20420;-84
2023/02/10 03:13:29;;;;;;;115.93;39.13;;;3.70;99.90;;;;;;5023223;28;20633;-84
2023/02/10 03:15:57;;;;;;;118.60;37.97;;;3.70;99.90;;;;;;5022920;28;20173;-84
2023/02/10 03:18:22;;;;;;;122.53;41.50;;;3.70;99.90;;;;;;5023141;28;20166;-84
2023/02/10 03:20:48;;;;;;;119.13;40.10;;;3.70;99.90;;;;;;5023232;28;20189;-84
2023/02/10 03:23:14;;;;;;;119.00;38.23;;;3.70;99.90;;;;;;5021936;28;20265;-84
2023/02/10 03:25:39;;;;;;;123.20;39.23;;;3.80;99.90;;;;;;5022627;28;20162;-84
2023/02/10 03:28:06;;;;;;;120.50;39.97;;;3.80;99.90;;;;;;5022747;28;20593;-85
2023/02/10 03:30:32;;;;;;;123.07;40.05;;;3.80;99.90;;;;;;5021158;28;20188;-84
2023/02/10 03:32:58;;;;;;;120.40;37.47;;;3.70;99.90;;;;;;5022738;28;20158;-84
2023/02/10 03:35:24;;;;;;;127.20;41.87;;;3.70;99.90;;;;;;5023546;28;20660;-84
2023/02/10 03:37:50;;;;;;;128.43;39.10;;;3.70;99.90;;;;;;5023377;28;20653;-84
2023/02/10 03:40:15;;;;;;;121.93;42.47;;;3.60;99.90;;;;;;5023087;28;20661;-84
2023/02/10 03:42:42;;;;;;;119.07;38.80;;;3.60;99.90;;;;;;5166433;22;20504;-83
2023/02/10 03:45:08;;;;;;;122.55;35.55;;;3.60;99.90;;;;;;5034071;28;20166;-83
2023/02/10 03:47:34;;;;;;;116.90;37.83;;;3.60;99.90;;;;;;5017187;28;20266;-84
2023/02/10 03:50:00;;;;;;;117.87;36.47;;;3.60;99.90;;;;;;5034405;28;20170;-83
2023/02/10 03:52:26;;;;;;;121.27;41.23;;;3.50;99.90;;;;;;5034686;28;20421;-83
2023/02/10 03:54:52;;;;;;;118.50;39.50;;;3.40;99.90;;;;;;5017556;28;20409;-83
2023/02/10 03:57:18;;;;;;;125.23;36.20;;;3.40;99.90;;;;;;5034080;28;20170;-83
2023/02/10 03:59:44;;;;;;;121.07;34.75;;;3.30;99.90;;;;;;5033083;28;20170;-83
2023/02/10 04:02:10;;;;;;;109.40;35.57;;;3.30;99.90;;;;;;5035256;28;20188;-83
2023/02/10 04:04:39;;;;;;;110.30;31.07;;;3.20;99.90;;;;;;5034529;28;20413;-84
2023/02/10 04:07:04;;;;;;;116.35;31.75;;;3.20;99.90;;;;;;5034003;28;20831;-83
2023/02/10 04:09:30;;;;;;;115.37;33.70;;;3.10;99.90;;;;;;5034801;28;20217;-83
2023/02/10 04:11:56;;;;;;;107.60;32.40;;;3.00;99.90;;;;;;5033275;28;20182;-84
2023/02/10 04:14:22;;;;;;;113.50;33.77;;;2.90;99.90;;;;;;5033425;28;20188;-84
2023/02/10 04:16:47;;;;;;;112.97;34.50;;;2.90;99.90;;;;;;5032344;28;20200;-83
2023/02/10 04:19:13;;;;;;;116.80;32.60;;;2.80;99.90;;;;;;5034055;28;20177;-84
2023/02/10 04:21:39;;;;;;;111.37;34.17;;;2.80;99.90;;;;;;5033387;28;20190;-83
2023/02/10 04:24:05;;;;;;;111.80;36.10;;;2.70;99.90;;;;;;5033964;28;20193;-84
2023/02/10 04:26:31;;;;;;;112.82;34.17;;;2.70;99.90;;;;;;5033943;28;20401;-83
2023/02/10 04:28:57;;;;;;;117.23;34.43;;;2.70;99.90;;;;;;5032824;28;20169;-83
2023/02/10 04:31:22;;;;;;;120.80;36.60;;;2.60;99.90;;;;;;5016556;28;20201;-83
2023/02/10 04:33:48;;;;;;;120.20;38.77;;;2.60;99.90;;;;;;5032827;28;20411;-83
2023/02/10 04:36:14;;;;;;;116.90;37.53;;;2.50;99.90;;;;;;5033662;28;20162;-83
2023/02/10 04:38:40;;;;;;;117.70;39.43;;;2.50;99.90;;;;;;5033687;28;20170;-83
2023/02/10 04:41:05;;;;;;;115.57;34.77;;;2.40;99.90;;;;;;5032989;28;20549;-83
2023/02/10 04:43:32;;;;;;;109.30;38.07;;;2.40;99.90;;;;;;5033577;28;20425;-83
2023/02/10 04:45:58;;;;;;;112.78;35.35;;;2.30;99.90;;;;;;5033110;28;20245;-83
2023/02/10 04:48:24;;;;;;;108.53;35.80;;;2.20;99.90;;;;;;5033384;28;20186;-83
2023/02/10 04:50:50;;;;;;;118.47;38.63;;;2.10;99.90;;;;;;5032506;28;20483;-83
2023/02/10 04:53:15;;;;;;;113.27;36.03;;;2.10;99.90;;;;;;5033487;28;20165;-83
2023/02/10 04:55:41;;;;;;;118.37;38.40;;;2.00;99.90;;;;;;5032906;28;20166;-83
2023/02/10 04:58:07;;;;;;;124.00;37.13;;;1.90;99.90;;;;;;5032459;28;20415;-83
2023/02/10 05:00:33;;;;;;;117.83;35.33;;;1.80;99.90;;;;;;5032973;28;20182;-83
2023/02/10 05:02:59;;;;;;;109.30;35.88;;;1.70;99.90;;;;;;5032623;28;20435;-83
2023/02/10 05:05:25;;;;;;;108.80;35.13;;;1.70;99.90;;;;;;5033464;28;20226;-83
2023/02/10 05:07:52;;;;;;;120.88;39.55;;;1.60;99.90;;;;;;5033308;28;20464;-84
2023/02/10 05:10:18;;;;;;;114.55;38.65;;;1.50;99.90;;;;;;5032614;28;20182;-83
2023/02/10 05:12:44;;;;;;;122.22;35.55;;;1.50;99.90;;;;;;5032294;28;20193;-83
2023/02/10 05:15:12;;;;;;;115.80;33.33;;;1.40;99.90;;;;;;5032685;28;20155;-83
2023/02/10 05:17:38;;;;;;;115.50;34.45;;;1.20;99.90;;;;;;5032550;28;20680;-83
2023/02/10 05:20:04;;;;;;;105.65;32.85;;;1.30;99.90;;;;;;5032447;28;20653;-83
2023/02/10 05:22:30;;;;;;;110.38;32.97;;;1.30;99.90;;;;;;5033080;28;20177;-83
2023/02/10 05:24:56;;;;;;;110.53;33.30;;;1.20;99.90;;;;;;5033101;28;20158;-83
2023/02/10 05:27:23;;;;;;;112.40;35.17;;;1.10;99.90;;;;;;5033101;28;20189;-83
2023/02/10 05:29:49;;;;;;;111.10;33.15;;;1.00;99.90;;;;;;5033087;28;20158;-83
2023/02/10 05:32:15;;;;;;;115.63;37.43;;;1.00;99.90;;;;;;5015672;28;20196;-83
2023/02/10 05:34:41;;;;;;;103.27;31.10;;;0.90;99.90;;;;;;5033456;28;20401;-83
2023/02/10 05:37:07;;;;;;;108.47;32.83;;;0.90;99.90;;;;;;5032316;28;20428;-83
2023/02/10 05:39:36;;;;;;;115.40;31.92;;;0.90;99.90;;;;;;5032245;28;20416;-83
2023/02/10 05:42:01;;;;;;;107.00;32.15;;;0.80;99.90;;;;;;5031900;28;20308;-83
2023/02/10 05:44:32;;;;;;;115.73;31.67;;;0.80;99.90;;;;;;5032843;28;20162;-83
2023/02/10 05:46:58;;;;;;;116.18;32.80;;;0.70;99.90;;;;;;5032723;28;20182;-83
2023/02/10 05:49:24;;;;;;;112.63;33.10;;;0.70;99.90;;;;;;5015512;28;20177;-83
2023/02/10 05:51:50;;;;;;;108.30;31.07;;;0.60;99.90;;;;;;5031600;28;20170;-83
2023/02/10 05:54:16;;;;;;;114.00;31.43;;;0.60;99.90;;;;;;5032448;28;20817;-83
2023/02/10 05:56:42;;;;;;;114.40;31.80;;;0.60;99.90;;;;;;5032699;28;20385;-83
2023/02/10 05:59:12;;;;;;;105.70;30.27;;;0.60;99.90;;;;;;5032969;28;20220;-83
2023/02/10 06:01:38;;;;;;;121.05;32.60;;;0.60;99.90;;;;;;5032133;28;20197;-84
2023/02/10 06:04:04;;;;;;;106.73;32.13;;;0.60;99.90;;;;;;5014700;28;20178;-83
2023/02/10 06:06:30;;;;;;;111.78;31.15;;;0.50;99.90;;;;;;5031161;28;20420;-83
2023/02/10 06:08:55;;;;;;;106.67;30.50;;;0.50;99.90;;;;;;5032481;28;20174;-83
2023/02/10 06:11:21;;;;;;;111.17;33.67;;;0.50;99.90;;;;;;5032502;28;20190;-83
2023/02/10 06:13:47;;;;;;;109.33;32.13;;;0.50;99.90;;;;;;5016421;28;20192;-83
2023/02/10 06:16:12;;;;;;;123.33;32.63;;;0.50;99.90;;;;;;5032103;28;20200;-83
2023/02/10 06:18:38;;;;;;;112.00;31.83;;;0.50;99.90;;;;;;5031427;28;20180;-83
2023/02/10 06:21:04;;;;;;;112.03;30.60;;;0.60;99.90;;;;;;5031536;28;20220;-83
2023/02/10 06:23:30;;;;;;;121.75;33.13;;;0.50;99.90;;;;;;5012607;28;20200;-83
2023/02/10 06:25:57;;;;;;;107.97;31.37;;;0.50;99.90;;;;;;5030114;28;20245;-83
2023/02/10 06:28:25;;;;;;;111.65;30.13;;;0.50;99.90;;;;;;5029714;28;20185;-83
2023/02/10 06:30:51;;;;;;;111.82;33.67;;;0.50;99.90;;;;;;5017572;28;20186;-83
2023/02/10 06:33:17;;;;;;;109.67;31.57;;;0.40;99.90;;;;;;5036241;28;20166;-83
2023/02/10 06:35:43;;;;;;;108.80;32.50;;;0.40;99.90;;;;;;5035890;28;20440;-83
2023/02/10 06:38:11;;;;;;;117.30;35.63;;;0.40;99.90;;;;;;5036466;28;20417;-83
2023/02/10 06:40:37;;;;;;;116.70;31.45;;;0.40;99.90;;;;;;5018720;28;20251;-83
2023/02/10 06:43:03;;;;;;;120.10;31.60;;;0.40;99.90;;;;;;5018505;28;20193;-83
2023/02/10 06:45:29;;;;;;;117.03;33.13;;;0.40;99.90;;;;;;5036199;28;20423;-83
2023/02/10 06:47:55;;;;;;;112.07;34.70;;;0.50;99.90;;;;;;5036271;28;20241;-83
2023/02/10 06:50:21;;;;;;;110.30;31.67;;;0.40;99.90;;;;;;5036544;28;20416;-83
2023/02/10 06:52:47;;;;;;;114.10;33.00;;;0.40;99.90;;;;;;5036800;28;20181;-83
2023/02/10 06:55:13;;;;;;;116.97;35.17;;;0.40;99.90;;;;;;5037097;28;20169;-83
2023/02/10 06:57:39;;;;;;;127.32;36.90;;;0.40;99.90;;;;;;5037042;28;20189;-83
2023/02/10 07:00:11;;;;;;;121.27;34.97;;;0.40;99.90;;;;;;5019149;28;20529;-83
2023/02/10 07:02:37;;;;;;;119.05;35.13;;;0.30;99.90;;;;;;5037335;28;20182;-83
2023/02/10 07:05:07;;;;;;;128.68;35.60;;;0.30;99.90;;;;;;5037786;28;20233;-83
2023/02/10 07:07:33;;;;;;;117.38;38.25;;;0.30;99.90;;;;;;5037701;28;20217;-83
2023/02/10 07:09:59;;;;;;;122.10;36.97;;;0.30;99.90;;;;;;5037489;28;20217;-83
2023/02/10 07:12:25;;;;;;;117.40;36.97;;;0.40;99.90;;;;;;5033390;28;20715;-83
2023/02/10 07:14:52;;;;;;;121.23;36.13;;;0.40;99.90;;;;;;5032623;28;20412;-83
2023/02/10 07:17:18;;;;;;;118.47;37.22;;;0.40;99.90;;;;;;5034483;28;20165;-83
2023/02/10 07:19:44;;;;;;;117.07;36.72;;;0.40;99.90;;;;;;5033816;28;20162;-83
2023/02/10 07:22:10;;;;;;;122.30;33.27;;;0.50;99.90;;;;;;5033603;28;20189;-83
2023/02/10 07:24:36;;;;;;;112.60;33.63;;;0.50;99.90;;;;;;5033376;28;20392;-83
2023/02/10 07:27:02;;;;;;;108.67;33.83;;;0.50;99.90;;;;;;5035896;28;20189;-83
2023/02/10 07:29:29;;;;;;;122.70;37.20;;;0.50;99.90;;;;;;5034105;28;20855;-83
2023/02/10 07:31:54;;;;;;;125.10;36.10;;;0.60;99.90;;;;;;5035413;28;20264;-82
2023/02/10 07:34:34;;;;;;;122.00;36.37;;;0.70;99.90;;;;;;5035034;28;20162;-83
2023/02/10 07:37:05;;;;;;;121.88;37.58;;;0.80;99.90;;;;;;5017533;28;20157;-83
2023/02/10 07:39:44;;;;;;;118.88;36.67;;;0.90;99.90;;;;;;5035714;28;20227;-83
2023/02/10 07:42:09;;;;;;;115.88;36.08;;;1.00;99.90;;;;;;5030485;28;20193;-82
2023/02/10 07:44:36;;;;;;;123.05;36.35;;;1.10;99.90;;;;;;5029887;28;20168;-83
2023/02/10 07:47:01;;;;;;;116.53;35.40;;;1.10;99.90;;;;;;5029609;28;20240;-83
2023/02/10 07:49:30;;;;;;;116.60;34.50;;;1.20;99.90;;;;;;5028643;28;20413;-83
2023/02/10 07:51:56;;;;;;;114.90;34.13;;;1.10;99.90;;;;;;5012312;28;20182;-83
2023/02/10 07:54:22;;;;;;;116.33;35.27;;;1.20;99.90;;;;;;5028102;28;20264;-83
2023/02/10 07:56:48;;;;;;;124.07;34.70;;;1.20;99.90;;;;;;5028871;28;20409;-83
2023/02/10 07:59:14;;;;;;;117.80;33.28;;;1.20;99.90;;;;;;5012310;28;20409;-83
2023/02/10 08:01:42;;;;;;;111.70;32.87;;;1.20;99.90;;;;;;5030585;28;20189;-83
2023/02/10 08:04:11;;;;;;;116.60;32.72;;;1.20;99.90;;;;;;5030630;28;20393;-83
2023/02/10 08:06:37;;;;;;;128.98;33.33;;;1.20;99.90;;;;;;5028641;28;20166;-83
2023/02/10 08:09:03;;;;;;;120.63;32.73;;;1.30;99.90;;;;;;5029893;28;20220;-83
2023/02/10 08:11:29;;;;;;;123.67;34.93;;;1.30;99.90;;;;;;5031102;28;20182;-83
2023/02/10 08:13:57;;;;;;;122.63;35.27;;;1.40;99.90;;;;;;5030723;28;20495;-83
2023/02/10 08:16:23;;;;;;;112.45;32.17;;;1.40;99.90;;;;;;5030231;28;20169;-83
2023/02/10 08:18:48;;;;;;;113.30;33.53;;;1.40;99.90;;;;;;5029769;28;20169;-83
2023/02/10 08:21:15;;;;;;;123.30;33.60;;;1.40;99.90;;;;;;5030104;28;20416;-83
2023/02/10 08:23:40;;;;;;;114.50;33.75;;;1.50;99.90;;;;;;5012836;28;20170;-84
2023/02/10 08:26:11;;;;;;;116.87;31.37;;;1.50;99.90;;;;;;5030495;28;20216;-83
2023/02/10 08:28:38;;;;;;;120.05;31.75;;;1.60;99.90;;;;;;5028695;28;20216;-83
2023/02/10 08:31:06;;;;;;;116.40;33.88;;;1.60;99.90;;;;;;5010375;28;20186;-83
2023/02/10 08:33:37;;;;;;;112.47;33.15;;;1.60;99.90;;;;;;5028726;28;20286;-83
2023/02/10 08:36:10;;;;;;;124.65;33.20;;;1.60;99.90;;;;;;5029811;28;20234;-83
2023/02/10 08:38:36;;;;;;;118.90;31.58;;;1.60;99.90;;;;;;5029698;28;20154;-83
2023/02/10 08:41:02;;;;;;;112.38;33.22;;;1.60;99.90;;;;;;5012204;28;20197;-83
2023/02/10 08:43:28;;;;;;;118.15;34.47;;;1.60;99.90;;;;;;5029789;28;20208;-83
2023/02/10 08:45:59;;;;;;;116.93;35.42;;;1.70;99.90;;;;;;5010760;28;20237;-83
2023/02/10 08:48:26;;;;;;;119.45;32.47;;;1.80;99.90;;;;;;5029706;28;20181;-83
2023/02/10 08:50:52;;;;;;;129.13;35.00;;;1.90;99.90;;;;;;5029830;28;20232;-83
2023/02/10 08:53:19;;;;;;;114.65;33.05;;;2.00;99.90;;;;;;5029151;28;20184;-83
2023/02/10 08:55:54;;;;;;;117.18;35.40;;;2.10;99.90;;;;;;5029381;28;20522;-85
2023/02/10 08:58:20;;;;;;;121.43;33.13;;;2.10;99.90;;;;;;5012721;28;20184;-85
2023/02/10 09:00:46;;;;;;;119.87;35.70;;;2.20;99.90;;;;;;5029581;28;20193;-84
2023/02/10 09:03:12;;;;;;;126.23;35.90;;;2.20;99.90;;;;;;5028812;28;20570;-84
2023/02/10 09:05:37;;;;;;;117.13;33.03;;;2.30;99.90;;;;;;5030488;28;20409;-84
2023/02/10 09:08:03;;;;;;;134.13;35.70;;;2.40;99.90;;;;;;5030792;28;20190;-84
2023/02/10 09:10:29;;;;;;;115.27;33.47;;;2.40;99.90;;;;;;5031109;28;20212;-84
2023/02/10 09:12:55;;;;;;;117.22;33.08;;;2.50;99.90;;;;;;5028868;28;20923;-84
2023/02/10 09:15:21;;;;;;;123.30;33.70;;;2.60;99.90;;;;;;5030080;28;20197;-83
2023/02/10 09:17:47;;;;;;;111.47;31.40;;;2.70;99.90;;;;;;5028493;28;20409;-84
2023/02/10 09:20:16;;;;;;;122.57;34.30;;;2.80;99.90;;;;;;5013012;28;20436;-84
2023/02/10 09:22:43;;;;;;;114.60;33.08;;;2.80;99.90;;;;;;5029528;28;20261;-84
2023/02/10 09:25:09;;;;;;;127.68;34.45;;;2.90;99.90;;;;;;5029469;28;20590;-84
2023/02/10 09:27:35;;;;;;;118.33;33.33;;;3.00;99.90;;;;;;5030407;28;20182;-84
2023/02/10 09:30:01;;;;;;;114.43;33.57;;;3.10;99.90;;;;;;5029957;28;20524;-84
2023/02/10 09:32:26;;;;;;;123.50;34.90;;;3.10;99.90;;;;;;5028335;28;20425;-84
2023/02/10 09:34:52;;;;;;;125.90;33.60;;;3.10;99.90;;;;;;5030301;28;20428;-84
2023/02/10 09:37:18;;;;;;;111.73;30.20;;;3.20;99.90;;;;;;5029268;28;20429;-83
2023/02/10 09:39:44;;;;;;;113.03;32.10;;;3.30;99.90;;;;;;5030052;28;20249;-83
2023/02/10 09:42:30;;;;;;;113.72;29.38;;;3.40;99.90;;;;;;5097491;22;20222;-85
2023/02/10 09:45:05;;;;;;;116.10;30.88;;;3.50;99.90;;;;;;5020335;28;20170;-84
2023/02/10 09:47:47;;;;;;;105.38;30.17;;;3.60;99.90;;;;;;5020708;28;20193;-84
2023/02/10 09:50:34;;;;;;;105.72;31.08;;;3.70;99.90;;;;;;5003511;28;20252;-84
2023/02/10 09:53:25;;;;;;;115.05;31.92;;;3.70;99.90;;;;;;5000561;28;20216;-84
2023/02/10 09:55:58;;;;;;;113.72;31.35;;;3.80;99.90;;;;;;4999916;28;20182;-84
2023/02/10 09:58:50;;;;;;;111.72;29.63;;;4.00;99.90;;;;;;5000035;28;20166;-84
2023/02/10 10:01:22;;;;;;;110.90;32.05;;;4.20;99.90;;;;;;4999954;28;20657;-84
2023/02/10 10:04:05;;;;;;;110.00;28.25;;;4.20;99.90;;;;;;4998757;28;20170;-84
2023/02/10 10:06:45;;;;;;;106.95;29.55;;;4.30;99.90;;;;;;5000291;28;20147;-84
2023/02/10 10:09:11;;;;;;;115.95;31.83;;;4.50;99.90;;;;;;4999667;28;20151;-84
2023/02/10 10:11:54;;;;;;;111.65;29.75;;;4.60;99.90;;;;;;4998676;28;20207;-85
2023/02/10 10:14:22;;;;;;;107.80;28.60;;;4.70;99.90;;;;;;5000134;28;20167;-85
2023/02/10 10:17:01;;;;;;;116.65;28.40;;;4.80;99.90;;;;;;4999630;28;20170;-84
2023/02/10 10:19:51;;;;;;;109.38;26.77;;;4.90;99.90;;;;;;4999874;28;20201;-85
2023/02/10 10:22:41;;;;;;;108.53;25.10;;;5.20;99.90;;;;;;4999854;28;20692;-84
2023/02/10 10:25:18;;;;;;;109.65;30.38;;;5.40;99.90;;;;;;4999232;28;20607;-84
2023/02/10 10:27:47;;;;;;;107.60;27.50;;;5.50;99.90;;;;;;4980991;28;20709;-84
2023/02/10 10:30:18;;;;;;;117.05;26.52;;;5.60;99.90;;;;;;4999730;28;20171;-84
2023/02/10 10:32:52;;;;;;;108.40;25.55;;;5.70;99.90;;;;;;4999765;28;20183;-84
2023/02/10 10:35:22;;;;;;;113.68;25.98;;;5.80;99.90;;;;;;4998039;28;20221;-84
2023/02/10 10:37:48;;;;;;;112.07;25.08;;;5.80;99.90;;;;;;4999743;28;20150;-84
2023/02/10 10:40:25;;;;;;;105.57;23.70;;;5.80;99.90;;;;;;4999516;28;20166;-83
2023/02/10 10:42:58;;;;;;;106.47;23.75;;;5.90;99.90;;;;;;4999173;28;20193;-83
2023/02/10 10:45:27;;;;;;;103.65;24.08;;;6.00;99.90;;;;;;4982127;28;20186;-84
2023/02/10 10:48:07;;;;;;;102.10;24.15;;;6.20;99.90;;;;;;4999804;28;20198;-84
2023/02/10 10:50:33;;;;;;;103.78;24.85;;;6.30;99.90;;;;;;4981564;28;20162;-84
2023/02/10 10:53:04;;;;;;;106.27;25.20;;;6.30;99.90;;;;;;4999844;28;20209;-84
2023/02/10 10:55:40;;;;;;;102.15;23.90;;;6.20;99.90;;;;;;4982045;28;20202;-84
2023/02/10 10:58:28;;;;;;;107.55;26.08;;;6.20;99.90;;;;;;4999855;28;20174;-83
2023/02/10 11:00:59;;;;;;;111.88;25.30;;;6.20;99.90;;;;;;4999341;28;20182;-84
2023/02/10 11:03:25;;;;;;;103.93;23.17;;;6.30;99.90;;;;;;4999041;28;20201;-84
2023/02/10 11:05:56;;;;;;;112.80;26.17;;;6.50;99.90;;;;;;4999061;28;20167;-83
2023/02/10 11:08:27;;;;;;;113.60;26.27;;;6.70;99.90;;;;;;4999274;28;20273;-83
2023/02/10 11:11:14;;;;;;;118.20;27.10;;;6.80;99.90;;;;;;4999299;28;20194;-83
2023/02/10 11:13:53;;;;;;;111.78;25.75;;;6.90;99.90;;;;;;4999380;28;20171;-83
2023/02/10 11:16:20;;;;;;;106.80;25.95;;;7.00;99.90;;;;;;4999402;28;20155;-83
2023/02/10 11:18:56;;;;;;;112.20;24.60;;;7.00;99.90;;;;;;5002479;28;20192;-83
2023/02/10 11:21:34;;;;;;;111.78;26.33;;;7.00;99.90;;;;;;5001910;28;20234;-84
2023/02/10 11:24:00;;;;;;;111.68;26.40;;;7.00;99.90;;;;;;5001915;28;20198;-84
2023/02/10 11:26:27;;;;;;;109.57;25.45;;;7.00;99.90;;;;;;5002677;28;20182;-84
2023/02/10 11:28:54;;;;;;;111.97;26.63;;;7.10;99.90;;;;;;5001202;28;20665;-84
2023/02/10 11:31:32;;;;;;;103.90;23.15;;;7.20;99.90;;;;;;5002937;28;20186;-84
2023/02/10 11:34:02;;;;;;;110.18;24.83;;;7.30;99.90;;;;;;4985412;28;20170;-84
2023/02/10 11:36:39;;;;;;;104.60;23.70;;;7.40;99.90;;;;;;5003415;28;20157;-84
2023/02/10 11:39:21;;;;;;;117.32;26.40;;;7.50;99.90;;;;;;4985377;28;20246;-84
2023/02/10 11:41:48;;;;;;;111.90;25.23;;;7.50;99.90;;;;;;5001385;28;20194;-84
2023/02/10 11:44:29;;;;;;;106.97;23.20;;;7.60;94.80;;;;;;5002643;28;20162;-84
2023/02/10 11:46:57;;;;;;;103.07;22.35;;;7.60;94.50;;;;;;5002542;28;20480;-85
2023/02/10 11:49:27;;;;;;;114.03;24.48;;;7.60;91.10;;;;;;5002117;28;20163;-84
2023/02/10 11:51:54;;;;;;;107.00;24.27;;;7.60;90.10;;;;;;5001017;28;20275;-84
2023/02/10 11:54:20;;;;;;;102.80;23.15;;;7.60;84.90;;;;;;5002828;28;20163;-84
2023/02/10 12:00:15;;;;;;;108.43;23.90;;;7.50;90.40;;;;;;5002349;28;20154;-84
2023/02/10 12:02:47;;;;;;;105.30;23.90;;;7.60;90.80;;;;;;5001032;28;20182;-84
2023/02/10 12:05:16;;;;;;;107.28;24.60;;;7.70;90.30;;;;;;5000955;28;20155;-84
2023/02/10 12:08:10;;;;;;;112.28;25.60;;;7.80;83.60;;;;;;5002064;28;20182;-84
2023/02/10 12:10:42;;;;;;;100.65;22.60;;;8.00;87.50;;;;;;5001851;28;20143;-84
2023/02/10 12:13:36;;;;;;;109.57;23.33;;;8.30;76.40;;;;;;5002511;28;20154;-84
2023/02/10 12:16:09;;;;;;;104.07;24.30;;;8.50;63.60;;;;;;4966492;28;20213;-84
2023/02/10 12:18:34;;;;;;;101.47;23.15;;;8.70;51.20;;;;;;5000627;28;20205;-84
2023/02/10 12:21:37;;;;;;;100.63;22.30;;;8.70;49.30;;;;;;5001837;28;20183;-84
2023/02/10 12:24:21;;;;;;;94.82;21.88;;;8.80;41.40;;;;;;5000632;28;20169;-84
2023/02/10 12:27:29;;;;;;;101.65;23.50;;;8.80;43.90;;;;;;5001856;28;20185;-84
2023/02/10 12:30:28;;;;;;;95.90;21.83;;;8.80;33.00;;;;;;4981201;28;20185;-84
2023/02/10 12:33:06;;;;;;;99.63;20.90;;;8.80;35.30;;;;;;4984117;28;20723;-85
2023/02/10 12:36:07;;;;;;;101.18;21.65;;;8.70;23.10;;;;;;4983549;28;20647;-84
2023/02/10 12:39:06;;;;;;;99.18;21.02;;;8.60;20.80;;;;;;4923330;29;20156;-84
2023/02/10 12:41:41;;;;;;;98.13;20.75;;;8.60;16.60;;;;;;4984342;28;20561;-84
2023/02/10 12:44:30;;;;;;;96.38;21.83;;;8.60;18.10;;;;;;4999923;28;20557;-84
2023/02/10 12:47:19;;;;;;;102.45;21.95;;;8.60;11.60;;;;;;5001760;28;20167;-84
2023/02/10 12:50:21;;;;;;;96.80;21.33;;;8.60;7.10;;;;;;4983750;28;20250;-84